Latest Weather Observations for Gabo Island

IDV60801

Issued at 9:52 pm EST Thursday 20 June 2019 (issued every 10 minutes, with the page automatically refreshed every 10 minutes)

About weather observations | Map of weather stations | Latest weather observations for VIC | Other Formats
Station Details ID: 084016 Name: GABO ISLAND LIGHTHOUSE Lat: -37.57 Lon: 149.92 Height: 15.2 m
Data from the previous 72 hours. | See also: Recent months at Gabo Island
Date/Time
EST
Temp
°C
App
Temp
°C
Dew
Point
°C
Rel
Hum
%
Delta-T
°C
Wind Press
QNH
hPa
Press
MSL
hPa
Rain since
9am
mm
Dir  Spd
km/h
Gust
km/h
Spd
kts
Gust
kts
20/09:30pm 9.6 6.1 5.4 75 1.9 WNW 13 19 7 10 1022.8 1022.8 0.0
20/09:00pm 9.9 5.4 6.2 78 1.7 W 19 24 10 13 1022.8 1022.8 0.0
20/08:30pm 9.9 4.8 6.2 78 1.7 W 22 26 12 14 1023.0 1023.0 0.0
20/08:00pm 10.4 5.1 7.0 79 1.6 WSW 24 30 13 16 1023.2 1023.2 0.0
20/07:30pm 10.5 5.3 7.1 79 1.6 W 24 30 13 16 1023.1 1023.1 0.0
20/07:00pm 10.8 5.1 6.5 75 2.0 WSW 26 35 14 19 1023.0 1023.0 0.0
20/06:30pm 10.9 5.5 6.2 73 2.2 W 24 30 13 16 1022.8 1022.8 0.0
20/06:00pm 11.1 5.0 6.4 73 2.2 WSW 28 35 15 19 1022.4 1022.4 0.0
20/05:30pm 11.2 4.9 5.8 69 2.5 WSW 28 35 15 19 1022.3 1022.3 0.0
20/05:00pm 11.4 4.1 5.5 67 2.7 WSW 33 41 18 22 1022.2 1022.2 0.0
20/04:30pm 11.7 3.7 5.9 67 2.7 SW 37 43 20 23 1022.0 1022.0 0.0
20/04:00pm 11.5 4.3 4.9 64 3.0 SW 32 37 17 20 1021.9 1021.9 0.0
20/03:30pm 11.6 5.2 5.3 65 2.9 SW 28 32 15 17 1021.9 1021.9 0.0
20/03:00pm 11.8 6.5 5.0 63 3.1 SSW 22 28 12 15 1022.0 1022.0 0.0
20/02:30pm 12.4 7.5 5.2 61 3.3 SSW 20 26 11 14 1022.2 1022.2 0.0
20/02:00pm 12.1 7.3 5.4 63 3.1 SW 20 24 11 13 1022.5 1022.5 0.0
20/01:30pm 12.4 6.4 3.6 55 3.9 WSW 24 30 13 16 1022.7 1022.7 0.0
20/01:00pm 12.4 6.6 4.4 58 3.6 WSW 24 30 13 16 1023.1 1023.1 0.0
20/12:30pm 12.2 6.4 4.2 58 3.6 WSW 24 30 13 16 1023.7 1023.7 0.0
20/12:00pm 12.0 7.2 4.5 60 3.4 W 19 32 10 17 1024.2 1024.2 0.0
20/11:30am 11.8 6.7 3.9 58 3.5 W 20 26 11 14 1024.8 1024.8 0.0
20/11:00am 11.4 6.3 4.2 61 3.2 W 20 26 11 14 1025.1 1025.1 0.0
20/10:30am 10.8 5.6 3.7 61 3.1 W 20 28 11 15 1025.3 1025.3 0.0
20/10:00am 11.0 5.9 4.0 62 3.1 WNW 20 24 11 13 1025.3 1025.3 0.0
20/09:30am 10.1 5.0 3.9 65 2.7 WNW 20 24 11 13 1025.1 1025.1 0.0
20/09:00am 9.6 4.7 3.9 67 2.5 WNW 19 28 10 15 1025.0 1025.0 0.0
20/08:30am 9.3 4.5 4.5 72 2.1 WNW 19 24 10 13 1024.8 1024.8 0.0
20/08:00am 9.3 4.9 4.5 72 2.1 WNW 17 24 9 13 1024.9 1024.9 0.0
20/07:30am 8.0 3.5 4.3 77 1.6 WNW 17 20 9 11 1024.9 1024.9 0.0
20/07:00am 7.9 3.4 4.2 77 1.6 WNW 17 20 9 11 1024.7 1024.7 0.0
20/06:30am 7.9 3.8 4.5 79 1.5 WNW 15 20 8 11 1024.4 1024.4 0.0
20/06:00am 8.3 3.8 4.4 76 1.7 WNW 17 24 9 13 1024.2 1024.2 0.0
20/05:30am 8.5 4.1 4.6 76 1.7 WNW 17 24 9 13 1024.3 1024.3 0.0
20/05:00am 8.5 4.1 4.6 76 1.7 NW 17 24 9 13 1024.1 1024.1 0.0
20/04:30am 9.5 2.8 5.5 76 1.8 W 30 35 16 19 1023.7 1023.7 0.0
20/04:00am 9.5 2.2 5.3 75 1.9 W 33 39 18 21 1023.6 1023.6 0.0
20/03:30am 9.3 2.2 5.3 76 1.8 W 32 39 17 21 1023.7 1023.7 0.0
20/03:02am - - - - - - - - - - - - -
20/03:00am 9.4 2.7 5.4 76 1.8 W 30 35 16 19 1023.8 1023.8 0.0
20/02:30am 9.3 2.6 5.8 79 1.6 W 30 35 16 19 1023.9 1023.9 0.0
20/02:00am 9.5 2.8 5.5 76 1.8 W 30 41 16 22 1023.9 1023.9 0.0
20/01:30am 9.8 3.5 5.9 77 1.8 W 28 35 15 19 1023.8 1023.8 0.0
20/01:00am 10.0 2.9 5.6 74 2.0 W 32 39 17 21 1023.8 1023.8 0.0
20/12:30am 9.8 3.5 5.9 77 1.8 W 28 39 15 21 1023.6 1023.6 0.0
20/12:00am 9.8 2.2 5.6 75 1.9 W 35 41 19 22 1023.8 1023.8 0.0
 
Date/Time
EST
Temp
°C
App
Temp
°C
Dew
Point
°C
Rel
Hum
%
Delta-T
°C
Wind Press
QNH
hPa
Press
MSL
hPa
Rain since
9am
mm
Dir  Spd
km/h
Gust
km/h
Spd
kts
Gust
kts
19/11:30pm 9.8 2.8 6.1 78 1.7 W 32 39 17 21 1023.7 1023.7 0.0
19/11:00pm 9.6 1.9 5.4 75 1.9 W 35 44 19 24 1023.9 1023.9 0.0
19/10:30pm 9.8 1.7 5.4 74 2.0 W 37 46 20 25 1023.8 1023.8 0.0
19/10:00pm 9.6 1.2 5.4 75 1.9 W 39 46 21 25 1023.8 1023.8 0.0
19/09:30pm 9.7 1.2 5.0 72 2.1 W 39 48 21 26 1023.7 1023.7 0.0
19/09:00pm 9.7 1.7 5.5 75 1.9 W 37 46 20 25 1023.7 1023.7 0.0
19/08:30pm 10.0 1.5 5.1 71 2.2 W 39 46 21 25 1023.5 1023.5 0.0
19/08:00pm 9.8 0.9 5.1 72 2.1 W 41 50 22 27 1023.6 1023.6 0.0
19/07:30pm 9.9 2.1 5.0 71 2.2 W 35 44 19 24 1023.6 1023.6 0.0
19/07:00pm 10.0 2.2 5.1 71 2.2 W 35 44 19 24 1023.5 1023.5 0.0
19/06:30pm 10.1 1.4 6.0 76 1.9 WSW 41 57 22 31 1023.2 1023.2 0.0
19/06:22pm 10.3 2.0 6.0 75 2.0 W 39 57 21 31 1023.1 1023.1 0.0
19/06:00pm 10.3 1.4 5.2 70 2.3 W 41 48 22 26 1023.0 1023.0 0.0
19/05:30pm 10.2 2.3 6.1 76 1.9 WSW 37 50 20 27 1022.8 1022.8 0.0
19/05:00pm 10.9 3.0 6.4 74 2.1 W 37 46 20 25 1022.4 1022.4 0.0
19/04:30pm 11.0 0.6 6.0 71 2.3 WSW 50 65 27 35 1022.2 1022.2 0.0
19/04:20pm 11.5 0.7 5.9 68 2.6 WSW 52 70 28 38 1022.1 1022.1 0.0
19/04:00pm 11.9 1.6 4.6 61 3.3 WSW 48 65 26 35 1021.9 1021.9 0.0
19/03:30pm 11.9 2.5 4.6 61 3.3 WSW 43 57 23 31 1021.7 1021.7 0.0
19/03:00pm 12.0 1.4 5.3 63 3.1 WSW 50 65 27 35 1021.5 1021.5 0.0
19/02:53pm 12.1 2.3 5.1 62 3.2 WSW 46 65 25 35 1021.4 1021.4 0.0
19/02:30pm 12.3 1.7 5.1 61 3.3 WSW 50 61 27 33 1021.3 1021.3 0.0
19/02:19pm 12.5 2.6 4.9 60 3.5 WSW 46 65 25 35 1021.2 1021.2 0.0
19/02:00pm 12.6 3.3 5.0 60 3.5 WSW 43 54 23 29 1021.3 1021.3 0.0
19/01:30pm 12.4 2.5 5.0 60 3.4 WSW 46 57 25 31 1021.0 1021.0 0.0
19/01:00pm 12.3 1.3 4.9 60 3.4 WSW 52 69 28 37 1021.0 1021.0 0.0
19/12:30pm 12.3 1.8 5.6 63 3.1 WSW 50 63 27 34 1021.1 1021.1 0.0
19/12:00pm 12.5 3.2 5.1 60 3.4 WSW 43 56 23 30 1021.2 1021.2 0.0
19/11:30am 12.5 4.3 4.8 59 3.5 WSW 37 50 20 27 1021.4 1021.4 0.0
19/11:00am 11.6 1.7 5.0 64 3.0 WSW 46 57 25 31 1021.4 1021.4 0.0
19/10:30am 11.2 2.3 5.3 67 2.7 WSW 41 50 22 27 1021.6 1021.6 0.0
19/10:00am 11.2 1.8 5.3 67 2.7 WSW 44 57 24 31 1021.3 1021.3 0.0
19/09:30am 10.3 0.7 4.2 66 2.7 W 44 54 24 29 1021.2 1021.2 0.0
19/09:00am 10.2 0.1 3.5 63 2.9 W 46 57 25 31 1021.0 1021.0 0.0
19/08:30am 10.0 0.4 3.3 63 2.9 W 43 57 23 31 1020.8 1020.8 0.0
19/08:00am 9.9 0.1 3.4 64 2.8 W 44 56 24 30 1020.7 1020.7 0.0
19/07:30am 9.6 -0.1 4.1 68 2.4 W 44 56 24 30 1020.5 1020.5 0.0
19/07:00am 9.2 -0.1 3.1 65 2.6 W 41 56 22 30 1020.1 1020.1 0.0
19/06:30am 9.2 -0.1 3.1 65 2.6 W 41 54 22 29 1020.0 1020.0 0.0
19/06:00am 9.0 0.8 2.9 65 2.6 W 35 46 19 25 1019.9 1019.9 0.0
19/05:30am 9.1 1.0 3.3 67 2.5 W 35 50 19 27 1019.6 1019.6 0.0
19/05:00am 9.2 0.7 3.1 65 2.6 W 37 46 20 25 1019.5 1019.5 0.0
19/04:30am 9.4 0.1 3.1 65 2.7 WSW 41 52 22 28 1019.1 1019.1 0.0
19/04:00am 9.5 -1.1 3.2 65 2.7 WSW 48 59 26 32 1018.9 1018.9 0.0
19/03:30am 9.7 -0.4 3.7 66 2.6 WSW 46 57 25 31 1018.9 1018.9 0.0
19/03:03am - - - - - - - - - - - - -
19/03:00am 9.8 0.2 3.6 65 2.7 WSW 43 52 23 28 1019.1 1019.0 0.0
19/02:30am 9.7 0.5 3.5 65 2.7 W 41 52 22 28 1019.1 1019.1 0.0
19/02:00am 9.8 1.8 3.6 65 2.7 WSW 35 46 19 25 1019.3 1019.3 0.0
19/01:30am 9.8 0.6 3.6 65 2.7 W 41 50 22 27 1018.9 1018.9 0.0
19/01:00am 10.0 0.9 3.8 65 2.7 W 41 54 22 29 1018.7 1018.7 0.0
19/12:30am 9.9 1.6 4.0 67 2.6 W 37 50 20 27 1018.5 1018.5 0.0
19/12:00am 9.8 2.5 4.6 70 2.3 W 32 41 17 22 1018.5 1018.5 0.0
 
Date/Time
EST
Temp
°C
App
Temp
°C
Dew
Point
°C
Rel
Hum
%
Delta-T
°C
Wind Press
QNH
hPa
Press
MSL
hPa
Rain since
9am
mm
Dir  Spd
km/h
Gust
km/h
Spd
kts
Gust
kts
18/11:30pm 9.7 1.9 5.0 72 2.1 W 35 43 19 23 1018.9 1018.9 0.0
18/11:00pm 10.0 2.4 5.6 74 2.0 W 35 48 19 26 1019.0 1019.0 0.0
18/10:30pm 10.4 2.8 5.6 72 2.2 W 35 46 19 25 1018.8 1018.8 0.0
18/10:00pm 11.2 3.0 6.5 73 2.2 WSW 39 52 21 28 1018.7 1018.7 0.0
18/09:30pm 11.9 4.3 7.6 75 2.1 WSW 37 46 20 25 1018.1 1018.1 0.0
18/09:00pm 12.0 5.8 7.7 75 2.1 W 30 39 16 21 1017.8 1017.8 0.0
18/08:30pm 12.7 6.2 8.2 74 2.2 WSW 32 37 17 20 1017.5 1017.5 0.0
18/08:00pm 12.8 6.5 9.0 78 1.9 SW 32 39 17 21 1017.4 1017.4 0.0
18/07:30pm 12.6 5.7 8.8 77 1.9 WSW 35 43 19 23 1017.3 1017.3 0.0
18/07:04pm 12.5 8.2 6.9 68 2.7 W 19 41 10 22 1017.2 1017.2 0.0
18/07:00pm 11.4 7.4 4.8 64 3.0 W 15 17 8 9 1016.9 1016.9 0.0
18/06:30pm 12.5 9.4 3.8 55 3.9 NW 9 13 5 7 1016.6 1016.6 0.0
18/06:00pm 12.8 9.8 3.9 54 4.0 NW 9 11 5 6 1016.4 1016.4 0.0
18/05:30pm 13.0 9.5 3.6 53 4.2 W 11 15 6 8 1016.2 1016.2 0.0
18/05:00pm 13.7 10.5 2.9 48 4.8 NW 9 11 5 6 1015.8 1015.8 0.0
18/04:30pm 14.0 9.9 2.4 45 5.1 NW 13 19 7 10 1015.6 1015.6 0.0
18/04:00pm 14.1 10.2 3.2 48 4.9 N 13 19 7 10 1015.4 1015.4 0.0
18/03:30pm 14.8 10.9 3.6 47 5.1 NNW 13 17 7 9 1015.6 1015.6 0.0
18/03:00pm 15.2 11.4 3.9 47 5.2 WNW 13 17 7 9 1015.7 1015.7 0.0
18/02:30pm 15.7 12.5 5.1 49 5.0 NNW 11 17 6 9 1015.6 1015.6 0.0
18/02:00pm 17.0 13.5 5.6 47 5.5 NNW 13 17 7 9 1015.7 1015.7 0.0
18/01:30pm 16.2 12.6 6.9 54 4.6 WNW 15 20 8 11 1016.1 1016.1 0.0
18/01:00pm 16.6 13.8 6.9 52 4.8 NW 11 15 6 8 1016.4 1016.4 0.0
18/12:30pm 16.3 13.1 6.7 53 4.7 WNW 13 19 7 10 1016.8 1016.8 0.0
18/12:00pm 16.0 12.8 6.8 54 4.5 NW 13 19 7 10 1016.9 1016.9 0.0
18/11:30am 16.1 12.4 6.5 53 4.7 NW 15 20 8 11 1017.2 1017.2 0.0
18/11:00am 14.9 11.8 7.4 61 3.7 NW 13 17 7 9 1017.8 1017.8 0.0
18/10:30am 13.7 9.9 7.6 66 3.0 WNW 17 20 9 11 1018.2 1018.2 0.0
18/10:00am 12.8 9.1 7.9 72 2.4 NW 17 22 9 12 1018.6 1018.6 0.0
18/09:30am 12.7 9.3 9.1 79 1.8 WNW 17 22 9 12 1018.4 1018.4 0.0
18/09:00am 13.0 11.3 9.9 81 1.6 NNW 9 13 5 7 1018.1 1018.1 0.0
18/08:30am 12.5 10.3 9.3 81 1.6 NW 11 15 6 8 1018.4 1018.4 0.0
18/08:00am 13.7 10.4 9.6 76 2.1 N 17 24 9 13 1018.4 1018.4 0.0
18/07:30am 13.8 9.5 9.3 74 2.3 N 22 28 12 15 1018.1 1018.1 0.0
18/07:00am 14.0 9.9 10.1 77 2.0 N 22 30 12 16 1018.2 1018.2 0.0
18/06:30am 12.5 11.5 10.4 87 1.1 WSW 6 7 3 4 1018.4 1018.4 0.0
18/06:00am 12.9 11.7 10.2 84 1.4 NNW 7 15 4 8 1018.5 1018.5 0.0
18/05:30am 13.3 11.3 10.2 81 1.6 NNW 11 19 6 10 1018.4 1018.4 0.0
18/05:00am 13.3 10.9 10.2 81 1.6 N 13 20 7 11 1018.4 1018.4 0.0
18/04:30am 12.3 9.8 9.7 84 1.3 N 13 19 7 10 1018.4 1018.4 0.0
18/04:00am 12.3 9.1 9.9 85 1.2 N 17 22 9 12 1018.5 1018.5 0.0
18/03:30am 12.7 9.2 10.2 85 1.3 N 19 22 10 12 1018.6 1018.6 0.0
18/03:03am - - - - - - - - - - - - -
18/03:00am 11.7 9.6 9.9 89 0.9 NW 11 15 6 8 1019.2 1019.1 0.0
18/02:30am 12.2 9.8 10.0 86 1.1 N 13 19 7 10 1019.4 1019.4 0.0
18/02:00am 12.4 10.6 10.9 90 0.8 N 11 13 6 7 1019.2 1019.2 0.0
18/01:30am 13.2 10.4 11.3 88 1.0 NNE 17 20 9 11 1019.5 1019.5 0.0
18/01:00am 13.2 11.1 11.3 88 1.0 N 13 17 7 9 1020.1 1020.1 0.0
18/12:30am 12.9 10.4 11.2 89 0.9 N 15 17 8 9 1020.4 1020.4 0.0
18/12:00am 13.5 11.0 11.2 86 1.2 NNE 15 19 8 10 1020.7 1020.7 0.0
 
Date/Time
EST
Temp
°C
App
Temp
°C
Dew
Point
°C
Rel
Hum
%
Delta-T
°C
Wind Press
QNH
hPa
Press
MSL
hPa
Rain since
9am
mm
Dir  Spd
km/h
Gust
km/h
Spd
kts
Gust
kts
17/11:30pm 11.9 10.3 10.1 89 0.9 NNE 9 13 5 7 1020.9 1020.9 0.0
17/11:00pm 12.6 11.5 10.5 87 1.1 N 7 9 4 5 1021.4 1021.4 0.0
17/10:30pm 12.8 11.8 10.3 85 1.3 N 6 7 3 4 1021.5 1021.5 0.0
17/10:00pm 12.2 10.5 10.0 86 1.1 NNW 9 9 5 5 1021.6 1021.6 0.0

Other formats

Comma delimited format used in spreadsheet applications
http://www.bom.gov.au/fwo/IDV60801/IDV60801.94933.axf

JavaScript Object Notation format (JSON) in row-major order
http://www.bom.gov.au/fwo/IDV60801/IDV60801.94933.json

Data quality

Most of these data are generated automatically and are frequently updated. Quality checks on data are not normally performed. It is possible for incorrect values to appear. Refer to information at About Latest Weather Observations and please check the disclaimer before using these data.